sensor_id;sensor_type;location;lat;lon;timestamp;temperature;humidity
74923;HTU21D;64715;44.760;37.678;2023-12-29T00:00:32;6.52;77.72
74923;HTU21D;64715;44.760;37.678;2023-12-29T00:01:33;6.53;78.04
74923;HTU21D;64715;44.760;37.678;2023-12-29T00:02:34;6.56;77.83
74923;HTU21D;64715;44.760;37.678;2023-12-29T00:03:35;6.60;77.85
74923;HTU21D;64715;44.760;37.678;2023-12-29T00:04:36;6.63;77.63
74923;HTU21D;64715;44.760;37.678;2023-12-29T00:05:38;6.64;77.80
74923;HTU21D;64715;44.760;37.678;2023-12-29T00:06:39;6.66;77.73
74923;HTU21D;64715;44.760;37.678;2023-12-29T00:07:40;6.69;77.95
74923;HTU21D;64715;44.760;37.678;2023-12-29T00:08:41;6.72;78.01
74923;HTU21D;64715;44.760;37.678;2023-12-29T00:09:42;6.75;77.86
74923;HTU21D;64715;44.760;37.678;2023-12-29T00:10:43;6.79;77.75
74923;HTU21D;64715;44.760;37.678;2023-12-29T00:11:44;6.80;77.89
74923;HTU21D;64715;44.760;37.678;2023-12-29T00:12:45;6.84;77.72
74923;HTU21D;64715;44.760;37.678;2023-12-29T00:13:46;6.86;78.01
74923;HTU21D;64715;44.760;37.678;2023-12-29T00:14:47;6.88;77.89
74923;HTU21D;64715;44.760;37.678;2023-12-29T00:15:52;6.90;77.84
74923;HTU21D;64715;44.760;37.678;2023-12-29T00:16:54;6.93;77.74
74923;HTU21D;64715;44.760;37.678;2023-12-29T00:17:57;6.94;77.83
74923;HTU21D;64715;44.760;37.678;2023-12-29T00:18:58;6.95;77.88
74923;HTU21D;64715;44.760;37.678;2023-12-29T00:19:59;6.96;77.86
74923;HTU21D;64715;44.760;37.678;2023-12-29T00:21:00;6.99;77.93
74923;HTU21D;64715;44.760;37.678;2023-12-29T00:22:01;7.02;77.85
74923;HTU21D;64715;44.760;37.678;2023-12-29T00:23:03;7.04;78.09
74923;HTU21D;64715;44.760;37.678;2023-12-29T00:24:05;7.07;77.94
74923;HTU21D;64715;44.760;37.678;2023-12-29T00:25:06;7.11;78.01
74923;HTU21D;64715;44.760;37.678;2023-12-29T00:26:09;7.15;77.98
74923;HTU21D;64715;44.760;37.678;2023-12-29T00:27:11;7.17;78.08
74923;HTU21D;64715;44.760;37.678;2023-12-29T00:28:12;7.19;77.92
74923;HTU21D;64715;44.760;37.678;2023-12-29T00:29:14;7.23;77.99
74923;HTU21D;64715;44.760;37.678;2023-12-29T00:30:15;7.26;78.04
74923;HTU21D;64715;44.760;37.678;2023-12-29T00:31:17;7.26;77.79
74923;HTU21D;64715;44.760;37.678;2023-12-29T00:32:18;7.26;77.81
74923;HTU21D;64715;44.760;37.678;2023-12-29T00:33:19;7.29;77.93
74923;HTU21D;64715;44.760;37.678;2023-12-29T00:34:21;7.31;78.01
74923;HTU21D;64715;44.760;37.678;2023-12-29T00:35:22;7.33;78.11
74923;HTU21D;64715;44.760;37.678;2023-12-29T00:36:23;7.35;77.93
74923;HTU21D;64715;44.760;37.678;2023-12-29T00:37:24;7.35;77.99
74923;HTU21D;64715;44.760;37.678;2023-12-29T00:38:26;7.38;78.16
74923;HTU21D;64715;44.760;37.678;2023-12-29T00:39:30;7.40;78.02
74923;HTU21D;64715;44.760;37.678;2023-12-29T00:40:34;7.42;77.90
74923;HTU21D;64715;44.760;37.678;2023-12-29T00:41:35;7.43;78.12
74923;HTU21D;64715;44.760;37.678;2023-12-29T00:42:36;7.44;77.96
74923;HTU21D;64715;44.760;37.678;2023-12-29T00:43:38;7.44;77.89
74923;HTU21D;64715;44.760;37.678;2023-12-29T00:44:40;7.46;77.82
74923;HTU21D;64715;44.760;37.678;2023-12-29T00:45:42;7.47;77.98
74923;HTU21D;64715;44.760;37.678;2023-12-29T00:46:42;7.47;77.78
74923;HTU21D;64715;44.760;37.678;2023-12-29T00:47:43;7.47;77.91
74923;HTU21D;64715;44.760;37.678;2023-12-29T00:48:45;7.48;78.02
74923;HTU21D;64715;44.760;37.678;2023-12-29T00:49:46;7.47;77.93
74923;HTU21D;64715;44.760;37.678;2023-12-29T00:50:47;7.49;77.98
74923;HTU21D;64715;44.760;37.678;2023-12-29T00:51:48;7.50;77.79
74923;HTU21D;64715;44.760;37.678;2023-12-29T00:52:49;7.50;77.83
74923;HTU21D;64715;44.760;37.678;2023-12-29T00:53:50;7.50;78.05
74923;HTU21D;64715;44.760;37.678;2023-12-29T00:54:51;7.53;77.92
74923;HTU21D;64715;44.760;37.678;2023-12-29T00:55:52;7.53;77.78
74923;HTU21D;64715;44.760;37.678;2023-12-29T00:56:53;7.54;77.91
74923;HTU21D;64715;44.760;37.678;2023-12-29T00:57:55;7.56;78.01
74923;HTU21D;64715;44.760;37.678;2023-12-29T00:58:56;7.57;78.20
74923;HTU21D;64715;44.760;37.678;2023-12-29T00:59:57;7.58;77.98
74923;HTU21D;64715;44.760;37.678;2023-12-29T01:00:58;7.58;78.01
74923;HTU21D;64715;44.760;37.678;2023-12-29T01:01:59;7.59;77.86
74923;HTU21D;64715;44.760;37.678;2023-12-29T01:03:00;7.61;77.92
74923;HTU21D;64715;44.760;37.678;2023-12-29T01:04:01;7.60;78.05
74923;HTU21D;64715;44.760;37.678;2023-12-29T01:05:02;7.60;77.96
74923;HTU21D;64715;44.760;37.678;2023-12-29T01:06:04;7.61;77.95
74923;HTU21D;64715;44.760;37.678;2023-12-29T01:07:05;7.62;77.95
74923;HTU21D;64715;44.760;37.678;2023-12-29T01:08:06;7.63;77.91
74923;HTU21D;64715;44.760;37.678;2023-12-29T01:09:07;7.64;77.89
74923;HTU21D;64715;44.760;37.678;2023-12-29T01:10:10;7.64;78.06
74923;HTU21D;64715;44.760;37.678;2023-12-29T01:11:11;7.64;77.96
74923;HTU21D;64715;44.760;37.678;2023-12-29T01:12:12;7.65;78.04
74923;HTU21D;64715;44.760;37.678;2023-12-29T01:13:13;7.67;78.30
74923;HTU21D;64715;44.760;37.678;2023-12-29T01:14:14;7.70;78.16
74923;HTU21D;64715;44.760;37.678;2023-12-29T01:15:15;7.72;78.24
74923;HTU21D;64715;44.760;37.678;2023-12-29T01:16:16;7.73;78.02
74923;HTU21D;64715;44.760;37.678;2023-12-29T01:17:17;7.75;78.08
74923;HTU21D;64715;44.760;37.678;2023-12-29T01:18:18;7.77;78.13
74923;HTU21D;64715;44.760;37.678;2023-12-29T01:19:19;7.78;78.09
74923;HTU21D;64715;44.760;37.678;2023-12-29T01:20:20;7.79;77.98
74923;HTU21D;64715;44.760;37.678;2023-12-29T01:21:21;7.79;78.05
74923;HTU21D;64715;44.760;37.678;2023-12-29T01:22:22;7.81;78.20
74923;HTU21D;64715;44.760;37.678;2023-12-29T01:23:22;7.82;78.05
74923;HTU21D;64715;44.760;37.678;2023-12-29T01:24:23;7.84;77.97
74923;HTU21D;64715;44.760;37.678;2023-12-29T01:25:24;7.86;78.23
74923;HTU21D;64715;44.760;37.678;2023-12-29T01:26:25;7.87;78.28
74923;HTU21D;64715;44.760;37.678;2023-12-29T01:27:27;7.88;78.16
74923;HTU21D;64715;44.760;37.678;2023-12-29T01:28:28;7.89;78.08
74923;HTU21D;64715;44.760;37.678;2023-12-29T01:29:29;7.89;77.97
74923;HTU21D;64715;44.760;37.678;2023-12-29T01:30:29;7.88;77.92
74923;HTU21D;64715;44.760;37.678;2023-12-29T01:31:31;7.88;77.85
74923;HTU21D;64715;44.760;37.678;2023-12-29T01:32:32;7.88;78.12
74923;HTU21D;64715;44.760;37.678;2023-12-29T01:33:34;7.87;78.03
74923;HTU21D;64715;44.760;37.678;2023-12-29T01:34:35;7.86;78.00
74923;HTU21D;64715;44.760;37.678;2023-12-29T01:35:35;7.86;78.01
74923;HTU21D;64715;44.760;37.678;2023-12-29T01:36:37;7.84;78.00
74923;HTU21D;64715;44.760;37.678;2023-12-29T01:37:38;7.84;78.03
74923;HTU21D;64715;44.760;37.678;2023-12-29T01:38:39;7.82;77.95
74923;HTU21D;64715;44.760;37.678;2023-12-29T01:39:40;7.82;78.03
74923;HTU21D;64715;44.760;37.678;2023-12-29T01:40:47;7.82;78.06
74923;HTU21D;64715;44.760;37.678;2023-12-29T01:41:48;7.83;78.01
74923;HTU21D;64715;44.760;37.678;2023-12-29T01:42:49;7.83;78.08
74923;HTU21D;64715;44.760;37.678;2023-12-29T01:45:00;7.86;78.00
74923;HTU21D;64715;44.760;37.678;2023-12-29T01:46:02;7.84;78.23
74923;HTU21D;64715;44.760;37.678;2023-12-29T01:47:09;7.86;78.17
74923;HTU21D;64715;44.760;37.678;2023-12-29T01:48:11;7.87;78.24
74923;HTU21D;64715;44.760;37.678;2023-12-29T01:49:15;7.87;78.15
74923;HTU21D;64715;44.760;37.678;2023-12-29T01:50:21;7.90;78.20
74923;HTU21D;64715;44.760;37.678;2023-12-29T01:51:24;7.91;78.20
74923;HTU21D;64715;44.760;37.678;2023-12-29T01:52:26;7.92;78.23
74923;HTU21D;64715;44.760;37.678;2023-12-29T01:53:27;7.93;78.13
74923;HTU21D;64715;44.760;37.678;2023-12-29T01:54:31;7.93;78.23
74923;HTU21D;64715;44.760;37.678;2023-12-29T01:55:33;7.97;78.23
74923;HTU21D;64715;44.760;37.678;2023-12-29T01:56:34;7.98;78.07
74923;HTU21D;64715;44.760;37.678;2023-12-29T01:57:35;8.01;78.27
74923;HTU21D;64715;44.760;37.678;2023-12-29T01:58:37;8.02;78.48
74923;HTU21D;64715;44.760;37.678;2023-12-29T01:59:38;8.03;78.32
74923;HTU21D;64715;44.760;37.678;2023-12-29T02:00:40;8.05;78.27
74923;HTU21D;64715;44.760;37.678;2023-12-29T02:01:42;8.06;78.21
74923;HTU21D;64715;44.760;37.678;2023-12-29T02:02:44;8.07;78.19
74923;HTU21D;64715;44.760;37.678;2023-12-29T02:03:46;8.09;78.33
74923;HTU21D;64715;44.760;37.678;2023-12-29T02:04:48;8.09;78.11
74923;HTU21D;64715;44.760;37.678;2023-12-29T02:05:50;8.11;78.26
74923;HTU21D;64715;44.760;37.678;2023-12-29T02:06:51;8.12;78.21
74923;HTU21D;64715;44.760;37.678;2023-12-29T02:07:52;8.13;78.29
74923;HTU21D;64715;44.760;37.678;2023-12-29T02:08:54;8.14;78.20
74923;HTU21D;64715;44.760;37.678;2023-12-29T02:09:57;8.13;78.13
74923;HTU21D;64715;44.760;37.678;2023-12-29T02:10:59;8.14;78.14
74923;HTU21D;64715;44.760;37.678;2023-12-29T02:12:00;8.14;78.28
74923;HTU21D;64715;44.760;37.678;2023-12-29T02:13:01;8.14;78.30
74923;HTU21D;64715;44.760;37.678;2023-12-29T02:14:02;8.14;78.36
74923;HTU21D;64715;44.760;37.678;2023-12-29T02:15:04;8.15;78.11
74923;HTU21D;64715;44.760;37.678;2023-12-29T02:16:21;8.17;78.30
74923;HTU21D;64715;44.760;37.678;2023-12-29T02:17:31;8.16;78.15
74923;HTU21D;64715;44.760;37.678;2023-12-29T02:18:34;8.15;78.11
74923;HTU21D;64715;44.760;37.678;2023-12-29T02:20:39;8.15;78.15
74923;HTU21D;64715;44.760;37.678;2023-12-29T02:21:41;8.15;78.27
74923;HTU21D;64715;44.760;37.678;2023-12-29T02:22:41;8.16;78.19
74923;HTU21D;64715;44.760;37.678;2023-12-29T02:23:42;8.15;78.30
74923;HTU21D;64715;44.760;37.678;2023-12-29T02:24:53;8.15;78.24
74923;HTU21D;64715;44.760;37.678;2023-12-29T02:26:01;8.15;78.27
74923;HTU21D;64715;44.760;37.678;2023-12-29T02:28:29;8.14;78.17
74923;HTU21D;64715;44.760;37.678;2023-12-29T02:29:32;8.14;78.32
74923;HTU21D;64715;44.760;37.678;2023-12-29T02:30:38;8.15;78.20
74923;HTU21D;64715;44.760;37.678;2023-12-29T02:31:43;8.16;78.25
74923;HTU21D;64715;44.760;37.678;2023-12-29T02:32:46;8.17;78.40
74923;HTU21D;64715;44.760;37.678;2023-12-29T02:33:49;8.18;78.24
74923;HTU21D;64715;44.760;37.678;2023-12-29T02:34:51;8.19;78.65
74923;HTU21D;64715;44.760;37.678;2023-12-29T02:35:53;8.21;78.55
74923;HTU21D;64715;44.760;37.678;2023-12-29T02:36:56;8.22;78.44
74923;HTU21D;64715;44.760;37.678;2023-12-29T02:37:59;8.23;78.50
74923;HTU21D;64715;44.760;37.678;2023-12-29T02:39:00;8.24;78.30
74923;HTU21D;64715;44.760;37.678;2023-12-29T02:40:01;8.27;78.53
74923;HTU21D;64715;44.760;37.678;2023-12-29T02:41:03;8.28;78.51
74923;HTU21D;64715;44.760;37.678;2023-12-29T02:42:04;8.28;78.59
74923;HTU21D;64715;44.760;37.678;2023-12-29T02:43:05;8.31;78.59
74923;HTU21D;64715;44.760;37.678;2023-12-29T02:44:06;8.33;78.39
74923;HTU21D;64715;44.760;37.678;2023-12-29T02:45:08;8.34;78.73
74923;HTU21D;64715;44.760;37.678;2023-12-29T02:46:11;8.38;78.51
74923;HTU21D;64715;44.760;37.678;2023-12-29T02:47:12;8.39;78.71
74923;HTU21D;64715;44.760;37.678;2023-12-29T02:48:13;8.41;78.53
74923;HTU21D;64715;44.760;37.678;2023-12-29T02:49:14;8.42;78.51
74923;HTU21D;64715;44.760;37.678;2023-12-29T02:50:15;8.43;78.56
74923;HTU21D;64715;44.760;37.678;2023-12-29T02:51:16;8.45;78.51
74923;HTU21D;64715;44.760;37.678;2023-12-29T02:52:17;8.47;78.55
74923;HTU21D;64715;44.760;37.678;2023-12-29T02:53:18;8.48;78.43
74923;HTU21D;64715;44.760;37.678;2023-12-29T02:54:19;8.49;78.59
74923;HTU21D;64715;44.760;37.678;2023-12-29T02:55:21;8.50;78.45
74923;HTU21D;64715;44.760;37.678;2023-12-29T02:56:21;8.50;78.52
74923;HTU21D;64715;44.760;37.678;2023-12-29T02:57:22;8.51;78.65
74923;HTU21D;64715;44.760;37.678;2023-12-29T02:58:23;8.52;78.69
74923;HTU21D;64715;44.760;37.678;2023-12-29T02:59:24;8.55;78.40
74923;HTU21D;64715;44.760;37.678;2023-12-29T03:00:25;8.56;78.50
74923;HTU21D;64715;44.760;37.678;2023-12-29T03:01:26;8.55;78.43
74923;HTU21D;64715;44.760;37.678;2023-12-29T03:02:29;8.56;78.52
74923;HTU21D;64715;44.760;37.678;2023-12-29T03:03:30;8.58;78.43
74923;HTU21D;64715;44.760;37.678;2023-12-29T03:04:31;8.58;78.48
74923;HTU21D;64715;44.760;37.678;2023-12-29T03:05:32;8.60;78.71
74923;HTU21D;64715;44.760;37.678;2023-12-29T03:06:33;8.59;78.69
74923;HTU21D;64715;44.760;37.678;2023-12-29T03:07:35;8.60;78.54
74923;HTU21D;64715;44.760;37.678;2023-12-29T03:08:36;8.58;78.52
74923;HTU21D;64715;44.760;37.678;2023-12-29T03:09:37;8.59;78.44
74923;HTU21D;64715;44.760;37.678;2023-12-29T03:10:38;8.59;78.69
74923;HTU21D;64715;44.760;37.678;2023-12-29T03:11:38;8.59;78.37
74923;HTU21D;64715;44.760;37.678;2023-12-29T03:12:39;8.61;78.70
74923;HTU21D;64715;44.760;37.678;2023-12-29T03:13:40;8.61;78.44
74923;HTU21D;64715;44.760;37.678;2023-12-29T03:14:41;8.63;78.60
74923;HTU21D;64715;44.760;37.678;2023-12-29T03:15:42;8.62;78.66
74923;HTU21D;64715;44.760;37.678;2023-12-29T03:16:43;8.63;78.56
74923;HTU21D;64715;44.760;37.678;2023-12-29T03:17:44;8.61;78.44
74923;HTU21D;64715;44.760;37.678;2023-12-29T03:18:45;8.62;78.52
74923;HTU21D;64715;44.760;37.678;2023-12-29T03:19:48;8.61;78.53
74923;HTU21D;64715;44.760;37.678;2023-12-29T03:20:48;8.60;78.52
74923;HTU21D;64715;44.760;37.678;2023-12-29T03:21:50;8.60;78.66
74923;HTU21D;64715;44.760;37.678;2023-12-29T03:22:51;8.58;78.41
74923;HTU21D;64715;44.760;37.678;2023-12-29T03:23:53;8.59;78.50
74923;HTU21D;64715;44.760;37.678;2023-12-29T03:24:54;8.60;78.56
74923;HTU21D;64715;44.760;37.678;2023-12-29T03:25:55;8.60;78.55
74923;HTU21D;64715;44.760;37.678;2023-12-29T03:26:56;8.59;78.51
74923;HTU21D;64715;44.760;37.678;2023-12-29T03:27:57;8.61;78.56
74923;HTU21D;64715;44.760;37.678;2023-12-29T03:28:59;8.60;78.37
74923;HTU21D;64715;44.760;37.678;2023-12-29T03:30:00;8.60;78.53
74923;HTU21D;64715;44.760;37.678;2023-12-29T03:31:01;8.61;78.53
74923;HTU21D;64715;44.760;37.678;2023-12-29T03:32:02;8.61;78.40
74923;HTU21D;64715;44.760;37.678;2023-12-29T03:33:03;8.58;78.49
74923;HTU21D;64715;44.760;37.678;2023-12-29T03:34:04;8.58;78.59
74923;HTU21D;64715;44.760;37.678;2023-12-29T03:35:05;8.58;78.57
74923;HTU21D;64715;44.760;37.678;2023-12-29T03:36:08;8.58;78.52
74923;HTU21D;64715;44.760;37.678;2023-12-29T03:37:09;8.58;78.59
74923;HTU21D;64715;44.760;37.678;2023-12-29T03:38:10;8.58;78.53
74923;HTU21D;64715;44.760;37.678;2023-12-29T03:39:11;8.58;78.54
74923;HTU21D;64715;44.760;37.678;2023-12-29T03:40:12;8.58;78.62
74923;HTU21D;64715;44.760;37.678;2023-12-29T03:41:14;8.58;78.48
74923;HTU21D;64715;44.760;37.678;2023-12-29T03:42:15;8.57;78.52
74923;HTU21D;64715;44.760;37.678;2023-12-29T03:43:16;8.57;78.59
74923;HTU21D;64715;44.760;37.678;2023-12-29T03:44:17;8.59;78.56
74923;HTU21D;64715;44.760;37.678;2023-12-29T03:45:18;8.58;78.66
74923;HTU21D;64715;44.760;37.678;2023-12-29T03:46:20;8.58;78.69
74923;HTU21D;64715;44.760;37.678;2023-12-29T03:47:21;8.61;78.56
74923;HTU21D;64715;44.760;37.678;2023-12-29T03:48:23;8.61;78.64
74923;HTU21D;64715;44.760;37.678;2023-12-29T03:49:24;8.63;78.67
74923;HTU21D;64715;44.760;37.678;2023-12-29T03:50:25;8.66;78.62
74923;HTU21D;64715;44.760;37.678;2023-12-29T03:51:26;8.67;78.61
74923;HTU21D;64715;44.760;37.678;2023-12-29T03:52:26;8.67;78.93
74923;HTU21D;64715;44.760;37.678;2023-12-29T03:53:27;8.70;78.75
74923;HTU21D;64715;44.760;37.678;2023-12-29T03:54:28;8.71;78.60
74923;HTU21D;64715;44.760;37.678;2023-12-29T03:55:29;8.71;78.75
74923;HTU21D;64715;44.760;37.678;2023-12-29T03:56:30;8.72;78.67
74923;HTU21D;64715;44.760;37.678;2023-12-29T03:57:31;8.72;78.71
74923;HTU21D;64715;44.760;37.678;2023-12-29T03:58:32;8.73;78.59
74923;HTU21D;64715;44.760;37.678;2023-12-29T03:59:36;8.73;78.59
74923;HTU21D;64715;44.760;37.678;2023-12-29T04:00:38;8.74;78.75
74923;HTU21D;64715;44.760;37.678;2023-12-29T04:01:42;8.75;78.83
74923;HTU21D;64715;44.760;37.678;2023-12-29T04:02:44;8.78;78.88
74923;HTU21D;64715;44.760;37.678;2023-12-29T04:03:46;8.78;78.83
74923;HTU21D;64715;44.760;37.678;2023-12-29T04:04:47;8.79;78.80
74923;HTU21D;64715;44.760;37.678;2023-12-29T04:05:48;8.80;78.76
74923;HTU21D;64715;44.760;37.678;2023-12-29T04:06:49;8.81;78.91
74923;HTU21D;64715;44.760;37.678;2023-12-29T04:07:50;8.82;78.84
74923;HTU21D;64715;44.760;37.678;2023-12-29T04:08:51;8.83;78.77
74923;HTU21D;64715;44.760;37.678;2023-12-29T04:09:52;8.82;78.86
74923;HTU21D;64715;44.760;37.678;2023-12-29T04:10:53;8.82;78.71
74923;HTU21D;64715;44.760;37.678;2023-12-29T04:11:54;8.85;78.78
74923;HTU21D;64715;44.760;37.678;2023-12-29T04:12:56;8.82;78.60
74923;HTU21D;64715;44.760;37.678;2023-12-29T04:13:57;8.82;78.60
74923;HTU21D;64715;44.760;37.678;2023-12-29T04:14:58;8.83;78.65
74923;HTU21D;64715;44.760;37.678;2023-12-29T04:15:59;8.82;78.68
74923;HTU21D;64715;44.760;37.678;2023-12-29T04:17:00;8.82;78.67
74923;HTU21D;64715;44.760;37.678;2023-12-29T04:18:04;8.82;78.78
74923;HTU21D;64715;44.760;37.678;2023-12-29T04:19:05;8.83;78.66
74923;HTU21D;64715;44.760;37.678;2023-12-29T04:20:06;8.81;78.64
74923;HTU21D;64715;44.760;37.678;2023-12-29T04:21:07;8.83;78.73
74923;HTU21D;64715;44.760;37.678;2023-12-29T04:22:09;8.83;78.64
74923;HTU21D;64715;44.760;37.678;2023-12-29T04:23:10;8.86;78.64
74923;HTU21D;64715;44.760;37.678;2023-12-29T04:24:12;8.85;78.71
74923;HTU21D;64715;44.760;37.678;2023-12-29T04:25:13;8.83;78.82
74923;HTU21D;64715;44.760;37.678;2023-12-29T04:26:15;8.83;78.66
74923;HTU21D;64715;44.760;37.678;2023-12-29T04:27:19;8.82;78.71
74923;HTU21D;64715;44.760;37.678;2023-12-29T04:28:20;8.83;78.72
74923;HTU21D;64715;44.760;37.678;2023-12-29T04:29:21;8.83;78.72
74923;HTU21D;64715;44.760;37.678;2023-12-29T04:30:22;8.83;78.84
74923;HTU21D;64715;44.760;37.678;2023-12-29T04:31:23;8.83;78.70
74923;HTU21D;64715;44.760;37.678;2023-12-29T04:32:24;8.83;78.64
74923;HTU21D;64715;44.760;37.678;2023-12-29T04:33:25;8.85;78.74
74923;HTU21D;64715;44.760;37.678;2023-12-29T04:34:26;8.83;78.81
74923;HTU21D;64715;44.760;37.678;2023-12-29T04:35:28;8.86;78.84
74923;HTU21D;64715;44.760;37.678;2023-12-29T04:36:29;8.86;78.91
74923;HTU21D;64715;44.760;37.678;2023-12-29T04:37:30;8.85;78.75
74923;HTU21D;64715;44.760;37.678;2023-12-29T04:38:31;8.88;79.04
74923;HTU21D;64715;44.760;37.678;2023-12-29T04:39:32;8.88;78.75
74923;HTU21D;64715;44.760;37.678;2023-12-29T04:40:33;8.89;79.03
74923;HTU21D;64715;44.760;37.678;2023-12-29T04:41:35;8.90;78.92
74923;HTU21D;64715;44.760;37.678;2023-12-29T04:42:36;8.90;79.03
74923;HTU21D;64715;44.760;37.678;2023-12-29T04:43:37;8.91;78.92
74923;HTU21D;64715;44.760;37.678;2023-12-29T04:44:38;8.92;78.94
74923;HTU21D;64715;44.760;37.678;2023-12-29T04:45:39;8.92;78.88
74923;HTU21D;64715;44.760;37.678;2023-12-29T04:46:40;8.94;79.04
74923;HTU21D;64715;44.760;37.678;2023-12-29T04:47:41;8.93;78.88
74923;HTU21D;64715;44.760;37.678;2023-12-29T04:48:42;8.92;78.94
74923;HTU21D;64715;44.760;37.678;2023-12-29T04:49:43;8.95;78.83
74923;HTU21D;64715;44.760;37.678;2023-12-29T04:50:43;8.94;78.86
74923;HTU21D;64715;44.760;37.678;2023-12-29T04:51:44;8.94;79.11
74923;HTU21D;64715;44.760;37.678;2023-12-29T04:52:47;8.95;78.91
74923;HTU21D;64715;44.760;37.678;2023-12-29T04:53:49;8.96;78.90
74923;HTU21D;64715;44.760;37.678;2023-12-29T04:54:50;8.94;78.89
74923;HTU21D;64715;44.760;37.678;2023-12-29T04:55:51;8.95;78.95
74923;HTU21D;64715;44.760;37.678;2023-12-29T04:56:52;8.94;78.99
74923;HTU21D;64715;44.760;37.678;2023-12-29T04:57:53;8.96;78.85
74923;HTU21D;64715;44.760;37.678;2023-12-29T04:58:53;8.96;78.88
74923;HTU21D;64715;44.760;37.678;2023-12-29T04:59:54;8.95;78.96
74923;HTU21D;64715;44.760;37.678;2023-12-29T05:00:55;8.96;78.82
74923;HTU21D;64715;44.760;37.678;2023-12-29T05:01:56;8.96;78.73
74923;HTU21D;64715;44.760;37.678;2023-12-29T05:02:57;8.94;78.82
74923;HTU21D;64715;44.760;37.678;2023-12-29T05:03:58;8.96;78.80
74923;HTU21D;64715;44.760;37.678;2023-12-29T05:04:59;8.95;78.67
74923;HTU21D;64715;44.760;37.678;2023-12-29T05:06:00;8.95;78.85
74923;HTU21D;64715;44.760;37.678;2023-12-29T05:07:01;8.97;79.11
74923;HTU21D;64715;44.760;37.678;2023-12-29T05:08:02;8.96;78.95
74923;HTU21D;64715;44.760;37.678;2023-12-29T05:09:03;8.96;78.79
74923;HTU21D;64715;44.760;37.678;2023-12-29T05:10:05;8.96;78.94
74923;HTU21D;64715;44.760;37.678;2023-12-29T05:11:06;8.95;78.96
74923;HTU21D;64715;44.760;37.678;2023-12-29T05:12:07;8.97;79.07
74923;HTU21D;64715;44.760;37.678;2023-12-29T05:13:08;8.97;79.27
74923;HTU21D;64715;44.760;37.678;2023-12-29T05:14:09;8.97;78.83
74923;HTU21D;64715;44.760;37.678;2023-12-29T05:15:10;9.01;78.98
74923;HTU21D;64715;44.760;37.678;2023-12-29T05:16:11;9.01;78.88
74923;HTU21D;64715;44.760;37.678;2023-12-29T05:17:13;9.02;78.88
74923;HTU21D;64715;44.760;37.678;2023-12-29T05:18:15;9.02;78.79
74923;HTU21D;64715;44.760;37.678;2023-12-29T05:19:16;9.02;79.05
74923;HTU21D;64715;44.760;37.678;2023-12-29T05:20:17;9.02;79.01
74923;HTU21D;64715;44.760;37.678;2023-12-29T05:21:18;9.05;78.85
74923;HTU21D;64715;44.760;37.678;2023-12-29T05:22:19;9.06;79.02
74923;HTU21D;64715;44.760;37.678;2023-12-29T05:23:21;9.05;79.11
74923;HTU21D;64715;44.760;37.678;2023-12-29T05:24:21;9.07;78.92
74923;HTU21D;64715;44.760;37.678;2023-12-29T05:25:22;9.09;79.10
74923;HTU21D;64715;44.760;37.678;2023-12-29T05:26:24;9.09;78.92
74923;HTU21D;64715;44.760;37.678;2023-12-29T05:27:26;9.11;79.24
74923;HTU21D;64715;44.760;37.678;2023-12-29T05:28:27;9.11;79.21
74923;HTU21D;64715;44.760;37.678;2023-12-29T05:29:28;9.12;79.01
74923;HTU21D;64715;44.760;37.678;2023-12-29T05:30:29;9.14;79.07
74923;HTU21D;64715;44.760;37.678;2023-12-29T05:31:32;9.14;79.13
74923;HTU21D;64715;44.760;37.678;2023-12-29T05:32:33;9.15;78.98
74923;HTU21D;64715;44.760;37.678;2023-12-29T05:33:35;9.16;79.08
74923;HTU21D;64715;44.760;37.678;2023-12-29T05:34:36;9.17;79.11
74923;HTU21D;64715;44.760;37.678;2023-12-29T05:35:37;9.16;79.06
74923;HTU21D;64715;44.760;37.678;2023-12-29T05:36:38;9.18;79.11
74923;HTU21D;64715;44.760;37.678;2023-12-29T05:37:39;9.18;78.96
74923;HTU21D;64715;44.760;37.678;2023-12-29T05:38:40;9.18;79.17
74923;HTU21D;64715;44.760;37.678;2023-12-29T05:39:42;9.19;79.20
74923;HTU21D;64715;44.760;37.678;2023-12-29T05:40:43;9.19;79.12
74923;HTU21D;64715;44.760;37.678;2023-12-29T05:41:44;9.19;79.00
74923;HTU21D;64715;44.760;37.678;2023-12-29T05:42:45;9.20;79.24
74923;HTU21D;64715;44.760;37.678;2023-12-29T05:43:46;9.21;79.03
74923;HTU21D;64715;44.760;37.678;2023-12-29T05:44:47;9.22;79.14
74923;HTU21D;64715;44.760;37.678;2023-12-29T05:45:48;9.22;79.04
74923;HTU21D;64715;44.760;37.678;2023-12-29T05:46:49;9.23;79.08
74923;HTU21D;64715;44.760;37.678;2023-12-29T05:47:50;9.24;79.33
74923;HTU21D;64715;44.760;37.678;2023-12-29T05:48:51;9.25;79.04
74923;HTU21D;64715;44.760;37.678;2023-12-29T05:49:55;9.25;79.14
74923;HTU21D;64715;44.760;37.678;2023-12-29T05:50:56;9.25;79.17
74923;HTU21D;64715;44.760;37.678;2023-12-29T05:51:57;9.25;79.21
74923;HTU21D;64715;44.760;37.678;2023-12-29T05:52:58;9.27;79.24
74923;HTU21D;64715;44.760;37.678;2023-12-29T05:53:59;9.29;79.12
74923;HTU21D;64715;44.760;37.678;2023-12-29T05:55:00;9.29;79.27
74923;HTU21D;64715;44.760;37.678;2023-12-29T05:56:00;9.30;79.24
74923;HTU21D;64715;44.760;37.678;2023-12-29T05:57:02;9.32;79.11
74923;HTU21D;64715;44.760;37.678;2023-12-29T05:58:03;9.32;79.37
74923;HTU21D;64715;44.760;37.678;2023-12-29T05:59:04;9.36;79.21
74923;HTU21D;64715;44.760;37.678;2023-12-29T06:00:05;9.38;79.18
74923;HTU21D;64715;44.760;37.678;2023-12-29T06:01:12;9.39;79.19
74923;HTU21D;64715;44.760;37.678;2023-12-29T06:02:13;9.39;79.01
74923;HTU21D;64715;44.760;37.678;2023-12-29T06:03:14;9.41;79.17
74923;HTU21D;64715;44.760;37.678;2023-12-29T06:04:15;9.42;79.23
74923;HTU21D;64715;44.760;37.678;2023-12-29T06:05:16;9.41;79.27
74923;HTU21D;64715;44.760;37.678;2023-12-29T06:06:17;9.42;79.08
74923;HTU21D;64715;44.760;37.678;2023-12-29T06:07:18;9.45;79.24
74923;HTU21D;64715;44.760;37.678;2023-12-29T06:08:20;9.46;79.37
74923;HTU21D;64715;44.760;37.678;2023-12-29T06:09:20;9.47;79.21
74923;HTU21D;64715;44.760;37.678;2023-12-29T06:10:21;9.49;79.19
74923;HTU21D;64715;44.760;37.678;2023-12-29T06:11:22;9.49;79.05
74923;HTU21D;64715;44.760;37.678;2023-12-29T06:12:24;9.51;79.38
74923;HTU21D;64715;44.760;37.678;2023-12-29T06:13:25;9.53;79.27
74923;HTU21D;64715;44.760;37.678;2023-12-29T06:14:26;9.54;79.09
74923;HTU21D;64715;44.760;37.678;2023-12-29T06:15:28;9.56;79.18
74923;HTU21D;64715;44.760;37.678;2023-12-29T06:16:29;9.60;79.14
74923;HTU21D;64715;44.760;37.678;2023-12-29T06:17:33;9.59;79.15
74923;HTU21D;64715;44.760;37.678;2023-12-29T06:18:35;9.62;79.26
74923;HTU21D;64715;44.760;37.678;2023-12-29T06:19:36;9.62;78.94
74923;HTU21D;64715;44.760;37.678;2023-12-29T06:20:38;9.62;79.08
74923;HTU21D;64715;44.760;37.678;2023-12-29T06:21:42;9.62;79.15
74923;HTU21D;64715;44.760;37.678;2023-12-29T06:22:46;9.62;79.24
74923;HTU21D;64715;44.760;37.678;2023-12-29T06:23:48;9.64;79.14
74923;HTU21D;64715;44.760;37.678;2023-12-29T06:24:49;9.63;79.33
74923;HTU21D;64715;44.760;37.678;2023-12-29T06:25:50;9.65;79.21